createdAt,value
2018-06-29T00:01:56.814Z,2.43
2018-06-29T00:04:28.356Z,2.97
2018-06-29T00:07:00.105Z,2.40
2018-06-29T00:09:31.681Z,2.40
2018-06-29T00:12:03.382Z,3.23
2018-06-29T00:14:34.860Z,3.30
2018-06-29T00:17:06.672Z,2.13
2018-06-29T00:19:38.291Z,1.80
2018-06-29T00:22:09.900Z,2.23
2018-06-29T00:24:41.490Z,3.00
2018-06-29T00:27:13.148Z,3.23
2018-06-29T00:29:44.700Z,3.13
2018-06-29T00:32:16.306Z,3.80
2018-06-29T00:34:47.908Z,3.73
2018-06-29T00:37:19.500Z,4.27
2018-06-29T00:39:51.143Z,2.57
2018-06-29T00:42:22.881Z,2.90
2018-06-29T00:44:54.494Z,5.73
2018-06-29T00:47:26.081Z,4.43
2018-06-29T00:49:57.674Z,3.57
2018-06-29T00:52:29.349Z,3.50
2018-06-29T00:55:00.888Z,3.27
2018-06-29T00:57:32.579Z,2.70
2018-06-29T01:00:08.658Z,3.07
2018-06-29T01:02:40.484Z,2.90
2018-06-29T01:05:12.133Z,4.90
2018-06-29T01:07:43.722Z,5.63
2018-06-29T01:10:15.306Z,5.90
2018-06-29T01:12:47.033Z,5.27
2018-06-29T01:15:18.720Z,3.83
2018-06-29T01:17:50.354Z,4.53
2018-06-29T01:20:21.984Z,4.80
2018-06-29T01:22:53.649Z,4.00
2018-06-29T01:25:25.283Z,4.27
2018-06-29T01:27:57.045Z,4.37
2018-06-29T01:30:28.582Z,3.20
2018-06-29T01:33:00.316Z,3.40
2018-06-29T01:35:31.892Z,2.60
2018-06-29T01:38:03.670Z,2.57
2018-06-29T01:40:35.179Z,2.90
2018-06-29T01:43:06.878Z,3.20
2018-06-29T01:45:38.445Z,2.80
2018-06-29T01:48:10.318Z,3.33
2018-06-29T01:50:42.051Z,3.40
2018-06-29T01:53:13.605Z,4.30
2018-06-29T01:55:45.215Z,3.50
2018-06-29T01:58:16.808Z,3.63
2018-06-29T02:00:48.429Z,4.33
2018-06-29T02:03:20.232Z,3.40
2018-06-29T02:05:51.910Z,4.90
2018-06-29T02:08:23.452Z,3.30
2018-06-29T02:10:54.993Z,3.17
2018-06-29T02:13:26.706Z,3.60
2018-06-29T02:15:58.291Z,4.60
2018-06-29T02:18:30.289Z,3.37
2018-06-29T02:21:01.793Z,3.13
2018-06-29T02:23:33.415Z,2.87
2018-06-29T02:26:04.996Z,2.47
2018-06-29T02:28:36.524Z,3.30
2018-06-29T02:31:08.251Z,4.17
2018-06-29T02:33:39.837Z,4.47
2018-06-29T02:36:11.522Z,5.50
2018-06-29T02:38:43.144Z,3.47
2018-06-29T02:41:15.040Z,3.67
2018-06-29T02:43:46.745Z,3.03
2018-06-29T02:46:18.387Z,2.60
2018-06-29T02:48:50.279Z,3.20
2018-06-29T02:51:22.048Z,2.37
2018-06-29T02:53:53.892Z,3.50
2018-06-29T02:56:25.599Z,2.93
2018-06-29T02:58:57.208Z,4.03
2018-06-29T03:01:28.842Z,3.23
2018-06-29T03:04:00.509Z,4.63
2018-06-29T03:06:32.160Z,5.43
2018-06-29T03:09:03.748Z,4.43
2018-06-29T03:11:35.424Z,4.70
2018-06-29T03:14:07.389Z,4.40
2018-06-29T03:16:38.928Z,4.63
2018-06-29T03:19:10.744Z,4.53
2018-06-29T03:21:42.269Z,4.90
2018-06-29T03:24:13.957Z,4.30
2018-06-29T03:26:45.624Z,4.33
2018-06-29T03:29:17.197Z,3.90
2018-06-29T03:31:48.937Z,5.27
2018-06-29T03:34:20.509Z,4.30
2018-06-29T03:36:52.180Z,4.27
2018-06-29T03:39:23.820Z,5.20
2018-06-29T03:41:55.447Z,4.10
2018-06-29T03:44:26.988Z,4.27
2018-06-29T03:46:58.609Z,6.20
2018-06-29T03:49:30.344Z,3.93
2018-06-29T03:52:02.070Z,4.53
2018-06-29T03:54:33.768Z,3.37
2018-06-29T03:57:05.361Z,3.90
2018-06-29T03:59:37.102Z,4.10
2018-06-29T04:02:08.761Z,4.67
2018-06-29T04:04:40.518Z,4.97
2018-06-29T04:07:12.088Z,4.53
2018-06-29T04:09:43.769Z,5.43
2018-06-29T04:12:15.306Z,4.00
2018-06-29T04:14:47.009Z,4.50
2018-06-29T04:17:18.486Z,4.20
2018-06-29T04:19:50.192Z,4.20
2018-06-29T04:22:21.702Z,3.30
2018-06-29T04:24:57.743Z,4.43
2018-06-29T04:27:29.381Z,4.23
2018-06-29T04:30:01.032Z,3.77
2018-06-29T04:32:32.562Z,5.03
2018-06-29T04:35:04.340Z,4.03
2018-06-29T04:37:36.042Z,3.53
2018-06-29T04:40:07.658Z,3.63
2018-06-29T04:42:39.300Z,3.70
2018-06-29T04:45:10.853Z,3.70
2018-06-29T04:47:42.513Z,4.10
2018-06-29T04:50:14.262Z,4.03
2018-06-29T04:52:45.930Z,5.27
2018-06-29T04:55:17.636Z,3.50
2018-06-29T04:57:49.273Z,3.40
2018-06-29T05:00:21.058Z,4.70
2018-06-29T05:02:52.647Z,3.90
2018-06-29T05:05:24.573Z,3.47
2018-06-29T05:07:56.301Z,3.73
2018-06-29T05:10:27.881Z,4.27
2018-06-29T05:12:59.585Z,4.33
2018-06-29T05:15:31.301Z,4.87
2018-06-29T05:18:02.820Z,6.53
2018-06-29T05:20:34.407Z,5.67
2018-06-29T05:23:06.208Z,4.27
2018-06-29T05:25:37.828Z,4.93
2018-06-29T05:28:09.576Z,3.93
2018-06-29T05:30:41.170Z,4.87
2018-06-29T05:33:12.845Z,3.87
2018-06-29T05:35:44.546Z,3.90
2018-06-29T05:38:16.267Z,3.70
2018-06-29T05:40:47.925Z,3.77
2018-06-29T05:43:19.505Z,3.67
2018-06-29T05:45:51.185Z,3.60
2018-06-29T05:48:22.800Z,3.57
2018-06-29T05:50:54.453Z,3.50
2018-06-29T05:53:26.018Z,3.63
2018-06-29T05:55:57.756Z,3.07
2018-06-29T05:58:29.319Z,3.10
2018-06-29T06:01:01.026Z,2.40
2018-06-29T06:03:32.614Z,3.13
2018-06-29T06:06:04.236Z,3.07
2018-06-29T06:08:35.827Z,2.70
2018-06-29T06:11:07.748Z,2.63
2018-06-29T06:13:39.546Z,2.43
2018-06-29T06:16:11.366Z,2.77
2018-06-29T06:18:43.166Z,2.97
2018-06-29T06:21:14.809Z,3.10
2018-06-29T06:23:46.481Z,2.83
2018-06-29T06:26:17.985Z,2.77
2018-06-29T06:28:49.701Z,3.03
2018-06-29T06:31:21.210Z,2.77
2018-06-29T06:33:52.898Z,2.63
2018-06-29T06:36:24.469Z,2.50
2018-06-29T06:38:56.040Z,2.83
2018-06-29T06:41:27.857Z,2.43
2018-06-29T06:43:59.629Z,1.80
2018-06-29T06:46:31.171Z,1.63
2018-06-29T06:49:02.733Z,1.50
2018-06-29T06:51:34.358Z,1.60
2018-06-29T06:54:06.154Z,2.10
2018-06-29T06:56:37.910Z,1.77
2018-06-29T06:59:09.568Z,1.47
2018-06-29T07:01:41.164Z,1.80
2018-06-29T07:04:12.878Z,2.47
2018-06-29T07:06:44.554Z,1.67
2018-06-29T07:09:16.121Z,1.47
2018-06-29T07:11:47.759Z,4.17
2018-06-29T07:14:19.428Z,2.43
2018-06-29T07:16:51.121Z,2.07
2018-06-29T07:19:22.748Z,1.50
2018-06-29T07:21:54.464Z,2.37
2018-06-29T07:24:26.213Z,2.03
2018-06-29T07:26:57.773Z,1.90
2018-06-29T07:29:30.421Z,2.67
2018-06-29T07:32:02.080Z,2.77
2018-06-29T07:34:33.722Z,4.23
2018-06-29T07:37:05.492Z,3.80
2018-06-29T07:39:37.209Z,3.00
2018-06-29T07:42:08.849Z,2.93
2018-06-29T07:44:40.522Z,3.40
2018-06-29T07:47:12.008Z,2.30
2018-06-29T07:49:43.621Z,2.17
2018-06-29T07:52:15.124Z,1.73
2018-06-29T07:54:46.762Z,2.20
2018-06-29T07:57:19.217Z,2.30
2018-06-29T07:59:50.961Z,2.93
2018-06-29T08:02:22.079Z,2.33
2018-06-29T08:04:53.898Z,2.00
2018-06-29T08:07:25.479Z,2.07
2018-06-29T08:09:57.176Z,3.27
2018-06-29T08:12:28.834Z,2.97
2018-06-29T08:15:00.499Z,2.30
2018-06-29T08:17:31.998Z,2.33
2018-06-29T08:20:03.633Z,1.93
2018-06-29T08:22:35.324Z,2.30
2018-06-29T08:25:15.659Z,2.93
2018-06-29T08:27:47.397Z,3.30
2018-06-29T08:30:19.058Z,3.43
2018-06-29T08:32:50.689Z,3.37
2018-06-29T08:35:22.247Z,2.87
2018-06-29T08:37:53.861Z,4.30
2018-06-29T08:40:25.655Z,4.27
2018-06-29T08:42:57.273Z,4.10
2018-06-29T08:45:29.027Z,3.87
2018-06-29T08:48:00.638Z,3.40
2018-06-29T08:50:32.296Z,3.20
2018-06-29T08:53:03.815Z,3.80
2018-06-29T08:55:35.602Z,3.77
2018-06-29T08:58:07.201Z,4.00
2018-06-29T09:00:38.966Z,4.20
2018-06-29T09:03:10.548Z,3.33
2018-06-29T09:05:42.323Z,4.87
2018-06-29T09:08:13.837Z,3.43
2018-06-29T09:10:45.744Z,2.80
2018-06-29T09:13:17.297Z,2.90
2018-06-29T09:15:49.051Z,3.10
2018-06-29T09:18:20.587Z,2.90
2018-06-29T09:20:52.316Z,3.50
2018-06-29T09:23:23.901Z,3.10
2018-06-29T09:25:55.696Z,4.20
2018-06-29T09:28:27.181Z,3.50
2018-06-29T09:30:58.881Z,4.33
2018-06-29T09:33:30.388Z,4.60
2018-06-29T09:36:02.005Z,3.50
2018-06-29T09:38:33.505Z,3.27
2018-06-29T09:41:05.245Z,4.10
2018-06-29T09:43:37.068Z,3.03
2018-06-29T09:46:08.239Z,3.00
2018-06-29T09:48:39.854Z,3.20
2018-06-29T09:51:11.457Z,2.90
2018-06-29T09:53:43.182Z,2.50
2018-06-29T09:56:14.752Z,3.83
2018-06-29T09:58:46.390Z,2.53
2018-06-29T10:01:18.078Z,2.27
2018-06-29T10:03:49.696Z,4.13
2018-06-29T10:06:21.494Z,5.07
2018-06-29T10:08:53.238Z,3.80
2018-06-29T10:11:24.941Z,4.00
2018-06-29T10:13:56.836Z,4.73
2018-06-29T10:16:28.296Z,4.73
2018-06-29T10:18:59.808Z,5.10
2018-06-29T10:21:31.539Z,5.00
2018-06-29T10:24:03.248Z,6.37
2018-06-29T10:26:34.820Z,4.33
2018-06-29T10:29:06.434Z,5.83
2018-06-29T10:31:38.021Z,3.80
2018-06-29T10:34:09.646Z,3.80
2018-06-29T10:36:41.422Z,5.50
2018-06-29T10:39:15.203Z,4.20
2018-06-29T10:41:46.817Z,4.50
2018-06-29T10:44:18.517Z,4.30
2018-06-29T10:46:50.109Z,5.07
2018-06-29T10:49:21.654Z,5.57
2018-06-29T10:51:53.318Z,5.00
2018-06-29T10:54:24.950Z,3.60
2018-06-29T10:56:56.657Z,3.70
2018-06-29T10:59:28.256Z,3.73
2018-06-29T11:02:00.009Z,3.53
2018-06-29T11:04:31.622Z,2.93
2018-06-29T11:07:03.337Z,2.50
2018-06-29T11:09:35.116Z,3.67
2018-06-29T11:12:06.856Z,4.57
2018-06-29T11:14:38.506Z,4.20
2018-06-29T11:17:10.109Z,4.23
2018-06-29T11:19:41.641Z,4.27
2018-06-29T11:22:13.436Z,4.13
2018-06-29T11:24:45.025Z,3.83
2018-06-29T11:27:16.723Z,3.67
2018-06-29T11:29:48.260Z,4.43
2018-06-29T11:32:19.944Z,4.27
2018-06-29T11:34:51.469Z,4.27
2018-06-29T11:37:23.154Z,4.30
2018-06-29T11:39:54.752Z,4.80
2018-06-29T11:42:26.524Z,4.60
2018-06-29T11:44:58.179Z,2.77
2018-06-29T11:47:29.809Z,4.00
2018-06-29T11:50:01.481Z,3.40
2018-06-29T11:52:33.118Z,3.77
2018-06-29T11:55:04.905Z,4.53
2018-06-29T11:57:36.702Z,3.00
2018-06-29T12:00:08.457Z,4.83
2018-06-29T12:02:40.188Z,6.13
2018-06-29T12:05:12.029Z,4.33
2018-06-29T12:07:43.666Z,3.90
2018-06-29T12:10:15.447Z,3.67
2018-06-29T12:12:47.069Z,3.73
2018-06-29T12:15:18.812Z,3.00
2018-06-29T12:17:50.775Z,2.50
2018-06-29T12:20:22.362Z,2.53
2018-06-29T12:22:54.089Z,2.03
2018-06-29T12:25:25.653Z,4.10
2018-06-29T12:27:57.357Z,4.33
2018-06-29T12:30:29.094Z,4.67
2018-06-29T12:33:00.765Z,3.33
2018-06-29T12:35:32.370Z,4.00
2018-06-29T12:38:04.053Z,3.53
2018-06-29T12:40:35.230Z,2.83
2018-06-29T12:43:06.999Z,3.20
2018-06-29T12:45:38.745Z,4.77
2018-06-29T12:48:10.329Z,3.80
2018-06-29T12:50:42.110Z,3.83
2018-06-29T12:53:13.717Z,3.17
2018-06-29T12:55:45.600Z,3.30
2018-06-29T12:58:17.165Z,2.80
2018-06-29T13:00:48.841Z,2.10
2018-06-29T13:03:20.378Z,2.33
2018-06-29T13:05:52.048Z,2.80
2018-06-29T13:08:23.553Z,2.73
2018-06-29T13:10:55.252Z,2.10
2018-06-29T13:13:26.762Z,4.63
2018-06-29T13:15:58.373Z,4.97
2018-06-29T13:18:30.045Z,5.97
2018-06-29T13:21:01.597Z,4.53
2018-06-29T13:23:33.301Z,4.33
2018-06-29T13:26:04.937Z,3.70
2018-06-29T13:28:36.614Z,3.47
2018-06-29T13:31:08.356Z,3.40
2018-06-29T13:33:39.943Z,2.67
2018-06-29T13:36:11.659Z,3.07
2018-06-29T13:38:43.470Z,2.60
2018-06-29T13:41:15.066Z,2.30
2018-06-29T13:43:46.819Z,2.03
2018-06-29T13:46:18.379Z,1.83
2018-06-29T13:48:50.102Z,2.77
2018-06-29T13:51:21.160Z,2.50
2018-06-29T13:53:52.546Z,3.53
2018-06-29T13:56:24.257Z,3.00
2018-06-29T13:58:55.844Z,2.27
2018-06-29T14:01:27.673Z,3.27
2018-06-29T14:03:59.334Z,2.37
2018-06-29T14:06:31.012Z,2.90
2018-06-29T14:09:02.748Z,2.20
2018-06-29T14:11:34.495Z,2.40
2018-06-29T14:14:06.021Z,2.70
2018-06-29T14:16:37.691Z,2.80
2018-06-29T14:19:09.326Z,2.90
2018-06-29T14:21:41.086Z,3.80
2018-06-29T14:24:12.694Z,2.87
2018-06-29T14:26:44.352Z,2.47
2018-06-29T14:29:15.874Z,3.97
2018-06-29T14:31:47.549Z,3.50
2018-06-29T14:34:19.199Z,2.27
2018-06-29T14:36:50.860Z,2.93
2018-06-29T14:39:22.365Z,2.70
2018-06-29T14:41:54.116Z,2.83
2018-06-29T14:44:25.826Z,2.10
2018-06-29T14:46:56.938Z,3.10
2018-06-29T14:49:28.397Z,3.77
2018-06-29T14:51:59.989Z,3.17
2018-06-29T14:54:31.017Z,2.20
2018-06-29T14:57:02.650Z,3.27
2018-06-29T14:59:34.275Z,2.80
2018-06-29T15:02:05.996Z,2.83
2018-06-29T15:04:37.525Z,2.70
2018-06-29T15:07:09.250Z,2.87
2018-06-29T15:09:40.833Z,2.83
2018-06-29T15:12:12.617Z,2.60
2018-06-29T15:14:44.271Z,2.37
2018-06-29T15:17:15.937Z,3.20
2018-06-29T15:19:47.439Z,3.97
2018-06-29T15:22:19.071Z,2.73
2018-06-29T15:24:50.806Z,3.30
2018-06-29T15:27:22.381Z,2.67
2018-06-29T15:29:54.106Z,2.00
2018-06-29T15:32:25.695Z,2.20
2018-06-29T15:34:57.281Z,2.50
2018-06-29T15:37:28.902Z,3.53
2018-06-29T15:40:00.510Z,3.70
2018-06-29T15:42:32.080Z,6.27
2018-06-29T15:45:03.931Z,3.20
2018-06-29T15:47:35.494Z,2.53
2018-06-29T15:50:07.516Z,3.60
2018-06-29T15:52:39.222Z,2.70
2018-06-29T15:55:10.441Z,3.10
2018-06-29T15:57:42.022Z,3.47
2018-06-29T16:00:13.634Z,2.50
2018-06-29T16:02:45.409Z,2.30
2018-06-29T16:05:17.018Z,2.20
2018-06-29T16:07:48.677Z,3.53
2018-06-29T16:10:20.406Z,2.63
2018-06-29T16:12:51.960Z,2.67
2018-06-29T16:15:23.569Z,3.33
2018-06-29T16:17:55.272Z,1.90
2018-06-29T16:20:26.883Z,2.67
2018-06-29T16:22:58.478Z,2.20
2018-06-29T16:25:30.097Z,3.90
2018-06-29T16:28:01.861Z,3.20
2018-06-29T16:30:33.433Z,2.63
2018-06-29T16:33:05.315Z,2.83
2018-06-29T16:35:37.073Z,2.10
2018-06-29T16:38:09.255Z,2.53
2018-06-29T16:40:40.848Z,4.57
2018-06-29T16:43:12.444Z,3.47
2018-06-29T16:45:44.057Z,3.40
2018-06-29T16:48:15.861Z,2.93
2018-06-29T16:50:47.479Z,2.03
2018-06-29T16:53:19.074Z,1.80
2018-06-29T16:55:50.692Z,1.73
2018-06-29T16:58:22.502Z,2.67
2018-06-29T17:00:54.362Z,2.00
2018-06-29T17:03:26.007Z,3.23
2018-06-29T17:05:57.512Z,1.70
2018-06-29T17:08:29.149Z,1.90
2018-06-29T17:11:00.738Z,1.60
2018-06-29T17:13:32.355Z,2.30
2018-06-29T17:16:03.986Z,1.47
2018-06-29T17:18:35.630Z,1.50
2018-06-29T17:21:07.157Z,1.50
2018-06-29T17:23:38.901Z,1.53
2018-06-29T17:26:10.465Z,1.50
2018-06-29T17:28:42.145Z,1.70
2018-06-29T17:31:13.705Z,1.50
2018-06-29T17:33:45.394Z,1.30
2018-06-29T17:36:16.984Z,1.30
2018-06-29T17:38:48.693Z,1.67
2018-06-29T17:41:20.125Z,2.10
2018-06-29T17:43:51.846Z,1.60
2018-06-29T17:46:23.526Z,1.63
2018-06-29T17:48:55.225Z,2.93
2018-06-29T17:51:26.873Z,1.70
2018-06-29T17:53:58.602Z,1.27
2018-06-29T17:56:30.383Z,1.50
2018-06-29T17:59:01.941Z,1.40
2018-06-29T18:01:33.558Z,1.17
2018-06-29T18:04:05.086Z,1.30
2018-06-29T18:06:36.870Z,1.50
2018-06-29T18:09:11.104Z,1.40
2018-06-29T18:11:42.767Z,1.23
2018-06-29T18:14:14.350Z,1.40
2018-06-29T18:16:45.957Z,1.27
2018-06-29T18:19:17.546Z,1.57
2018-06-29T18:21:49.086Z,1.30
2018-06-29T18:24:20.670Z,1.00
2018-06-29T18:26:52.272Z,1.40
2018-06-29T18:29:23.794Z,1.30
2018-06-29T18:31:55.302Z,1.00
2018-06-29T18:34:26.910Z,0.97
2018-06-29T18:36:58.689Z,1.13
2018-06-29T18:39:30.317Z,1.40
2018-06-29T18:42:02.027Z,1.40
2018-06-29T18:44:33.593Z,1.93
2018-06-29T18:47:05.423Z,1.30
2018-06-29T18:49:37.121Z,1.30
2018-06-29T18:52:08.656Z,1.70
2018-06-29T18:54:40.338Z,1.87
2018-06-29T18:57:11.860Z,1.50
2018-06-29T18:59:43.596Z,2.40
2018-06-29T19:02:15.174Z,1.80
2018-06-29T19:04:46.853Z,2.50
2018-06-29T19:07:18.369Z,2.73
2018-06-29T19:09:49.985Z,2.20
2018-06-29T19:12:21.641Z,2.50
2018-06-29T19:14:53.095Z,2.33
2018-06-29T19:17:24.683Z,3.33
2018-06-29T19:19:56.308Z,2.87
2018-06-29T19:22:27.941Z,2.60
2018-06-29T19:24:59.489Z,2.50
2018-06-29T19:27:31.143Z,3.63
2018-06-29T19:30:02.641Z,2.90
2018-06-29T19:32:34.357Z,3.77
2018-06-29T19:35:05.883Z,3.90
2018-06-29T19:37:37.570Z,3.27
2018-06-29T19:40:09.240Z,2.43
2018-06-29T19:42:40.805Z,2.67
2018-06-29T19:45:12.317Z,2.30
2018-06-29T19:47:44.021Z,2.10
2018-06-29T19:50:15.752Z,3.83
2018-06-29T19:52:47.482Z,4.50
2018-06-29T19:55:19.005Z,3.60
2018-06-29T19:57:50.719Z,3.50
2018-06-29T20:00:22.644Z,3.60
2018-06-29T20:02:54.228Z,3.57
2018-06-29T20:05:25.849Z,3.17
2018-06-29T20:07:57.445Z,2.30
2018-06-29T20:10:28.974Z,3.67
2018-06-29T20:13:00.440Z,2.33
2018-06-29T20:15:32.184Z,2.80
2018-06-29T20:18:03.764Z,3.03
2018-06-29T20:20:35.368Z,3.17
2018-06-29T20:23:06.869Z,2.73
2018-06-29T20:25:38.485Z,2.87
2018-06-29T20:28:10.237Z,3.30
2018-06-29T20:30:41.722Z,4.40
2018-06-29T20:33:13.432Z,4.70
2018-06-29T20:35:45.153Z,4.03
2018-06-29T20:38:16.779Z,4.23
2018-06-29T20:40:48.567Z,5.33
2018-06-29T20:43:20.138Z,4.90
2018-06-29T20:45:51.827Z,4.47
2018-06-29T20:48:23.455Z,4.37
2018-06-29T20:50:55.358Z,3.77
2018-06-29T20:53:27.054Z,4.37
2018-06-29T20:55:58.678Z,4.33
2018-06-29T20:58:30.263Z,3.70
2018-06-29T21:01:01.902Z,4.00
2018-06-29T21:03:33.586Z,3.83
2018-06-29T21:06:05.144Z,3.60
2018-06-29T21:08:36.785Z,3.37
2018-06-29T21:11:08.396Z,4.30
2018-06-29T21:13:40.104Z,4.40
2018-06-29T21:16:11.712Z,4.10
2018-06-29T21:18:43.437Z,5.47
2018-06-29T21:21:15.029Z,4.23
2018-06-29T21:23:46.727Z,3.87
2018-06-29T21:26:18.339Z,4.40
2018-06-29T21:28:50.106Z,3.00
2018-06-29T21:31:21.681Z,4.00
2018-06-29T21:33:53.434Z,5.27
2018-06-29T21:36:25.113Z,3.80
2018-06-29T21:38:56.798Z,3.63
2018-06-29T21:41:28.373Z,4.43
2018-06-29T21:44:00.012Z,3.50
2018-06-29T21:46:31.634Z,3.33
2018-06-29T21:49:03.319Z,4.47
2018-06-29T21:51:34.934Z,5.00
2018-06-29T21:54:06.710Z,4.17
2018-06-29T21:56:38.364Z,4.03
2018-06-29T21:59:10.046Z,4.50
2018-06-29T22:01:41.638Z,4.00
2018-06-29T22:04:13.349Z,3.43
2018-06-29T22:06:44.969Z,4.00
2018-06-29T22:09:16.675Z,4.20
2018-06-29T22:11:48.422Z,3.57
2018-06-29T22:14:19.993Z,4.47
2018-06-29T22:16:51.720Z,4.07
2018-06-29T22:19:23.286Z,4.60
2018-06-29T22:21:54.928Z,4.20
2018-06-29T22:24:26.687Z,4.80
2018-06-29T22:26:58.306Z,4.20
2018-06-29T22:29:29.910Z,4.50
2018-06-29T22:32:01.509Z,4.60
2018-06-29T22:34:33.213Z,5.13
2018-06-29T22:37:04.724Z,5.23
2018-06-29T22:39:36.429Z,4.77
2018-06-29T22:42:08.179Z,4.67
2018-06-29T22:44:39.843Z,5.27
2018-06-29T22:47:11.512Z,4.03
2018-06-29T22:49:43.076Z,3.30
2018-06-29T22:52:14.554Z,5.27
2018-06-29T22:54:46.159Z,5.27
2018-06-29T22:57:18.702Z,3.93
2018-06-29T22:59:50.301Z,3.53
2018-06-29T23:02:22.006Z,4.20
2018-06-29T23:04:53.602Z,4.73
2018-06-29T23:07:25.216Z,3.80
2018-06-29T23:09:56.809Z,3.40
2018-06-29T23:12:28.425Z,3.07
2018-06-29T23:15:00.159Z,3.37
2018-06-29T23:17:31.840Z,3.00
2018-06-29T23:20:03.440Z,4.17
2018-06-29T23:22:34.981Z,4.73
2018-06-29T23:25:06.803Z,4.37
2018-06-29T23:27:38.612Z,4.57
2018-06-29T23:30:10.390Z,3.87
2018-06-29T23:32:41.998Z,3.53
2018-06-29T23:35:13.625Z,4.77
2018-06-29T23:37:45.340Z,3.00
2018-06-29T23:40:16.940Z,3.53
2018-06-29T23:42:48.617Z,3.70
2018-06-29T23:45:20.210Z,3.50
2018-06-29T23:47:51.738Z,2.80
2018-06-29T23:50:23.341Z,2.40
2018-06-29T23:52:55.040Z,3.60
2018-06-29T23:55:26.797Z,3.23
2018-06-29T23:57:58.382Z,3.53
